sensor_id;sensor_type;location;lat;lon;timestamp;P1;durP1;ratioP1;P2;durP2;ratioP2
74614;SDS011;63121;51.458;-0.110;2023-09-19T00:01:28;11.63;;;2.25;;
74614;SDS011;63121;51.458;-0.110;2023-09-19T00:03:55;6.70;;;1.40;;
74614;SDS011;63121;51.458;-0.110;2023-09-19T00:06:22;9.80;;;1.60;;
74614;SDS011;63121;51.458;-0.110;2023-09-19T00:08:51;7.82;;;1.45;;
74614;SDS011;63121;51.458;-0.110;2023-09-19T00:11:17;6.65;;;1.10;;
74614;SDS011;63121;51.458;-0.110;2023-09-19T00:13:42;5.45;;;1.08;;
74614;SDS011;63121;51.458;-0.110;2023-09-19T00:16:09;7.32;;;1.30;;
74614;SDS011;63121;51.458;-0.110;2023-09-19T00:18:38;7.22;;;1.50;;
74614;SDS011;63121;51.458;-0.110;2023-09-19T00:21:03;9.85;;;1.60;;
74614;SDS011;63121;51.458;-0.110;2023-09-19T00:23:32;6.95;;;1.38;;
74614;SDS011;63121;51.458;-0.110;2023-09-19T00:26:00;10.32;;;1.65;;
74614;SDS011;63121;51.458;-0.110;2023-09-19T00:28:26;9.60;;;1.35;;
74614;SDS011;63121;51.458;-0.110;2023-09-19T00:30:52;3.53;;;0.93;;
74614;SDS011;63121;51.458;-0.110;2023-09-19T00:33:19;9.18;;;1.70;;
74614;SDS011;63121;51.458;-0.110;2023-09-19T00:35:51;7.22;;;1.60;;
74614;SDS011;63121;51.458;-0.110;2023-09-19T00:38:18;8.98;;;1.83;;
74614;SDS011;63121;51.458;-0.110;2023-09-19T00:40:47;9.65;;;1.45;;
74614;SDS011;63121;51.458;-0.110;2023-09-19T00:43:13;9.32;;;1.45;;
74614;SDS011;63121;51.458;-0.110;2023-09-19T00:45:38;5.68;;;1.40;;
74614;SDS011;63121;51.458;-0.110;2023-09-19T00:48:08;18.55;;;3.03;;
74614;SDS011;63121;51.458;-0.110;2023-09-19T00:50:34;14.52;;;1.85;;
74614;SDS011;63121;51.458;-0.110;2023-09-19T00:53:02;8.15;;;1.48;;
74614;SDS011;63121;51.458;-0.110;2023-09-19T00:55:35;9.98;;;2.00;;
74614;SDS011;63121;51.458;-0.110;2023-09-19T00:58:02;6.18;;;1.50;;
74614;SDS011;63121;51.458;-0.110;2023-09-19T01:00:28;9.05;;;1.33;;
74614;SDS011;63121;51.458;-0.110;2023-09-19T01:02:54;13.10;;;1.58;;
74614;SDS011;63121;51.458;-0.110;2023-09-19T01:05:19;11.77;;;1.50;;
74614;SDS011;63121;51.458;-0.110;2023-09-19T01:07:45;6.88;;;1.23;;
74614;SDS011;63121;51.458;-0.110;2023-09-19T01:10:13;9.57;;;1.58;;
74614;SDS011;63121;51.458;-0.110;2023-09-19T01:30:14;15.43;;;2.05;;
74614;SDS011;63121;51.458;-0.110;2023-09-19T01:32:42;8.20;;;1.30;;
74614;SDS011;63121;51.458;-0.110;2023-09-19T01:35:08;12.80;;;1.60;;
74614;SDS011;63121;51.458;-0.110;2023-09-19T01:37:37;6.03;;;1.27;;
74614;SDS011;63121;51.458;-0.110;2023-09-19T01:51:00;13.55;;;2.30;;
74614;SDS011;63121;51.458;-0.110;2023-09-19T01:56:11;13.93;;;1.50;;
74614;SDS011;63121;51.458;-0.110;2023-09-19T01:58:48;7.97;;;1.65;;
74614;SDS011;63121;51.458;-0.110;2023-09-19T02:01:17;6.40;;;1.20;;
74614;SDS011;63121;51.458;-0.110;2023-09-19T02:03:47;10.55;;;1.50;;
74614;SDS011;63121;51.458;-0.110;2023-09-19T02:06:14;9.35;;;2.35;;
74614;SDS011;63121;51.458;-0.110;2023-09-19T02:08:41;8.70;;;1.40;;
74614;SDS011;63121;51.458;-0.110;2023-09-19T02:11:06;14.75;;;1.98;;
74614;SDS011;63121;51.458;-0.110;2023-09-19T02:13:31;10.10;;;1.30;;
74614;SDS011;63121;51.458;-0.110;2023-09-19T02:15:57;10.65;;;1.83;;
74614;SDS011;63121;51.458;-0.110;2023-09-19T02:18:23;10.82;;;1.73;;
74614;SDS011;63121;51.458;-0.110;2023-09-19T02:20:48;12.63;;;2.15;;
74614;SDS011;63121;51.458;-0.110;2023-09-19T02:23:14;10.90;;;1.70;;
74614;SDS011;63121;51.458;-0.110;2023-09-19T02:25:40;7.68;;;1.92;;
74614;SDS011;63121;51.458;-0.110;2023-09-19T02:28:06;10.98;;;1.80;;
74614;SDS011;63121;51.458;-0.110;2023-09-19T02:30:32;11.23;;;2.20;;
74614;SDS011;63121;51.458;-0.110;2023-09-19T02:32:57;13.43;;;2.20;;
74614;SDS011;63121;51.458;-0.110;2023-09-19T02:35:23;10.93;;;1.80;;
74614;SDS011;63121;51.458;-0.110;2023-09-19T02:40:15;11.40;;;1.50;;
74614;SDS011;63121;51.458;-0.110;2023-09-19T02:42:46;9.48;;;2.13;;
74614;SDS011;63121;51.458;-0.110;2023-09-19T02:45:14;9.55;;;1.80;;
74614;SDS011;63121;51.458;-0.110;2023-09-19T02:47:43;10.48;;;1.63;;
74614;SDS011;63121;51.458;-0.110;2023-09-19T02:50:09;7.65;;;1.58;;
74614;SDS011;63121;51.458;-0.110;2023-09-19T02:52:36;15.20;;;2.30;;
74614;SDS011;63121;51.458;-0.110;2023-09-19T02:55:02;10.75;;;1.60;;
74614;SDS011;63121;51.458;-0.110;2023-09-19T02:57:30;8.23;;;1.50;;
74614;SDS011;63121;51.458;-0.110;2023-09-19T02:59:58;10.32;;;1.85;;
74614;SDS011;63121;51.458;-0.110;2023-09-19T03:02:24;8.43;;;1.50;;
74614;SDS011;63121;51.458;-0.110;2023-09-19T03:04:49;9.38;;;1.50;;
74614;SDS011;63121;51.458;-0.110;2023-09-19T03:07:16;12.02;;;1.48;;
74614;SDS011;63121;51.458;-0.110;2023-09-19T03:09:42;8.73;;;1.38;;
74614;SDS011;63121;51.458;-0.110;2023-09-19T03:12:08;10.82;;;1.50;;
74614;SDS011;63121;51.458;-0.110;2023-09-19T03:14:33;10.73;;;1.60;;
74614;SDS011;63121;51.458;-0.110;2023-09-19T03:17:00;11.25;;;2.42;;
74614;SDS011;63121;51.458;-0.110;2023-09-19T03:19:26;9.73;;;1.60;;
74614;SDS011;63121;51.458;-0.110;2023-09-19T03:21:51;13.13;;;2.00;;
74614;SDS011;63121;51.458;-0.110;2023-09-19T03:26:43;8.32;;;1.35;;
74614;SDS011;63121;51.458;-0.110;2023-09-19T03:29:10;12.02;;;1.98;;
74614;SDS011;63121;51.458;-0.110;2023-09-19T03:31:36;9.50;;;1.60;;
74614;SDS011;63121;51.458;-0.110;2023-09-19T03:34:04;9.82;;;1.40;;
74614;SDS011;63121;51.458;-0.110;2023-09-19T03:36:29;9.90;;;1.30;;
74614;SDS011;63121;51.458;-0.110;2023-09-19T03:38:55;10.70;;;1.38;;
74614;SDS011;63121;51.458;-0.110;2023-09-19T03:41:21;8.98;;;1.83;;
74614;SDS011;63121;51.458;-0.110;2023-09-19T03:43:46;11.85;;;1.70;;
74614;SDS011;63121;51.458;-0.110;2023-09-19T03:46:11;7.38;;;1.48;;
74614;SDS011;63121;51.458;-0.110;2023-09-19T03:48:40;8.20;;;1.73;;
74614;SDS011;63121;51.458;-0.110;2023-09-19T03:51:05;11.48;;;1.90;;
74614;SDS011;63121;51.458;-0.110;2023-09-19T03:53:31;6.75;;;1.30;;
74614;SDS011;63121;51.458;-0.110;2023-09-19T03:55:56;11.82;;;1.77;;
74614;SDS011;63121;51.458;-0.110;2023-09-19T03:58:22;9.68;;;1.95;;
74614;SDS011;63121;51.458;-0.110;2023-09-19T04:00:47;9.52;;;1.70;;
74614;SDS011;63121;51.458;-0.110;2023-09-19T04:03:14;9.05;;;1.33;;
74614;SDS011;63121;51.458;-0.110;2023-09-19T04:05:45;11.48;;;1.60;;
74614;SDS011;63121;51.458;-0.110;2023-09-19T04:08:11;10.45;;;1.45;;
74614;SDS011;63121;51.458;-0.110;2023-09-19T04:10:37;9.27;;;1.88;;
74614;SDS011;63121;51.458;-0.110;2023-09-19T04:13:02;9.15;;;1.27;;
74614;SDS011;63121;51.458;-0.110;2023-09-19T04:15:29;9.68;;;1.52;;
74614;SDS011;63121;51.458;-0.110;2023-09-19T04:17:54;8.60;;;1.75;;
74614;SDS011;63121;51.458;-0.110;2023-09-19T04:20:20;8.00;;;1.50;;
74614;SDS011;63121;51.458;-0.110;2023-09-19T04:22:48;9.75;;;1.40;;
74614;SDS011;63121;51.458;-0.110;2023-09-19T04:25:13;8.30;;;1.80;;
74614;SDS011;63121;51.458;-0.110;2023-09-19T04:27:39;12.50;;;1.95;;
74614;SDS011;63121;51.458;-0.110;2023-09-19T04:32:36;7.45;;;1.77;;
74614;SDS011;63121;51.458;-0.110;2023-09-19T04:35:05;11.48;;;1.42;;
74614;SDS011;63121;51.458;-0.110;2023-09-19T04:37:38;7.28;;;1.50;;
74614;SDS011;63121;51.458;-0.110;2023-09-19T04:40:06;9.10;;;1.33;;
74614;SDS011;63121;51.458;-0.110;2023-09-19T04:42:38;7.78;;;1.92;;
74614;SDS011;63121;51.458;-0.110;2023-09-19T04:45:04;10.98;;;2.15;;
74614;SDS011;63121;51.458;-0.110;2023-09-19T04:47:30;10.50;;;1.67;;
74614;SDS011;63121;51.458;-0.110;2023-09-19T04:49:55;7.30;;;1.10;;
74614;SDS011;63121;51.458;-0.110;2023-09-19T04:52:21;10.23;;;1.67;;
74614;SDS011;63121;51.458;-0.110;2023-09-19T04:54:47;7.05;;;1.25;;
74614;SDS011;63121;51.458;-0.110;2023-09-19T04:57:13;7.28;;;1.50;;
74614;SDS011;63121;51.458;-0.110;2023-09-19T04:59:38;5.23;;;1.10;;
74614;SDS011;63121;51.458;-0.110;2023-09-19T05:02:06;9.15;;;2.05;;
74614;SDS011;63121;51.458;-0.110;2023-09-19T05:04:33;10.27;;;1.58;;
74614;SDS011;63121;51.458;-0.110;2023-09-19T05:06:59;10.93;;;1.40;;
74614;SDS011;63121;51.458;-0.110;2023-09-19T05:09:26;10.73;;;1.80;;
74614;SDS011;63121;51.458;-0.110;2023-09-19T05:11:51;8.25;;;1.40;;
74614;SDS011;63121;51.458;-0.110;2023-09-19T05:14:17;6.40;;;1.08;;
74614;SDS011;63121;51.458;-0.110;2023-09-19T05:16:44;15.10;;;1.95;;
74614;SDS011;63121;51.458;-0.110;2023-09-19T05:19:09;7.70;;;1.17;;
74614;SDS011;63121;51.458;-0.110;2023-09-19T05:21:36;9.52;;;1.33;;
74614;SDS011;63121;51.458;-0.110;2023-09-19T05:24:03;10.27;;;1.33;;
74614;SDS011;63121;51.458;-0.110;2023-09-19T05:26:32;11.07;;;1.27;;
74614;SDS011;63121;51.458;-0.110;2023-09-19T05:28:57;11.32;;;1.98;;
74614;SDS011;63121;51.458;-0.110;2023-09-19T05:31:23;11.20;;;1.70;;
74614;SDS011;63121;51.458;-0.110;2023-09-19T05:33:49;10.63;;;1.50;;
74614;SDS011;63121;51.458;-0.110;2023-09-19T05:36:15;5.22;;;1.15;;
74614;SDS011;63121;51.458;-0.110;2023-09-19T05:38:41;8.48;;;1.30;;
74614;SDS011;63121;51.458;-0.110;2023-09-19T05:41:07;8.70;;;1.70;;
74614;SDS011;63121;51.458;-0.110;2023-09-19T05:46:02;10.25;;;2.03;;
74614;SDS011;63121;51.458;-0.110;2023-09-19T05:48:28;14.20;;;1.85;;
74614;SDS011;63121;51.458;-0.110;2023-09-19T05:50:53;9.20;;;1.80;;
74614;SDS011;63121;51.458;-0.110;2023-09-19T05:53:19;14.77;;;2.42;;
74614;SDS011;63121;51.458;-0.110;2023-09-19T05:55:44;11.00;;;1.70;;
74614;SDS011;63121;51.458;-0.110;2023-09-19T05:58:10;12.90;;;1.63;;
74614;SDS011;63121;51.458;-0.110;2023-09-19T06:00:38;11.05;;;1.50;;
74614;SDS011;63121;51.458;-0.110;2023-09-19T06:03:07;10.65;;;1.63;;
74614;SDS011;63121;51.458;-0.110;2023-09-19T06:05:33;9.73;;;1.75;;
74614;SDS011;63121;51.458;-0.110;2023-09-19T06:07:58;8.40;;;1.98;;
74614;SDS011;63121;51.458;-0.110;2023-09-19T06:10:32;10.02;;;1.40;;
74614;SDS011;63121;51.458;-0.110;2023-09-19T06:12:59;11.02;;;1.70;;
74614;SDS011;63121;51.458;-0.110;2023-09-19T06:15:25;11.50;;;1.92;;
74614;SDS011;63121;51.458;-0.110;2023-09-19T06:17:55;11.43;;;1.70;;
74614;SDS011;63121;51.458;-0.110;2023-09-19T06:20:22;8.95;;;2.08;;
74614;SDS011;63121;51.458;-0.110;2023-09-19T06:22:50;8.00;;;1.48;;
74614;SDS011;63121;51.458;-0.110;2023-09-19T06:25:16;12.25;;;1.55;;
74614;SDS011;63121;51.458;-0.110;2023-09-19T06:27:48;9.20;;;1.52;;
74614;SDS011;63121;51.458;-0.110;2023-09-19T06:30:17;8.15;;;1.30;;
74614;SDS011;63121;51.458;-0.110;2023-09-19T06:32:43;5.80;;;1.00;;
74614;SDS011;63121;51.458;-0.110;2023-09-19T06:35:09;7.03;;;1.23;;
74614;SDS011;63121;51.458;-0.110;2023-09-19T06:37:38;8.73;;;1.50;;
74614;SDS011;63121;51.458;-0.110;2023-09-19T06:42:34;6.22;;;1.13;;
74614;SDS011;63121;51.458;-0.110;2023-09-19T06:45:02;8.85;;;1.55;;
74614;SDS011;63121;51.458;-0.110;2023-09-19T06:47:28;5.28;;;0.90;;
74614;SDS011;63121;51.458;-0.110;2023-09-19T06:49:53;5.43;;;1.10;;
74614;SDS011;63121;51.458;-0.110;2023-09-19T06:52:19;8.45;;;1.40;;
74614;SDS011;63121;51.458;-0.110;2023-09-19T06:54:48;9.27;;;1.40;;
74614;SDS011;63121;51.458;-0.110;2023-09-19T06:57:15;4.95;;;1.15;;
74614;SDS011;63121;51.458;-0.110;2023-09-19T06:59:44;5.57;;;1.10;;
74614;SDS011;63121;51.458;-0.110;2023-09-19T07:02:10;4.25;;;1.20;;
74614;SDS011;63121;51.458;-0.110;2023-09-19T07:04:35;7.70;;;1.38;;
74614;SDS011;63121;51.458;-0.110;2023-09-19T07:07:01;5.20;;;0.97;;
74614;SDS011;63121;51.458;-0.110;2023-09-19T07:09:26;4.15;;;1.30;;
74614;SDS011;63121;51.458;-0.110;2023-09-19T07:11:53;7.13;;;1.23;;
74614;SDS011;63121;51.458;-0.110;2023-09-19T07:14:19;6.30;;;1.08;;
74614;SDS011;63121;51.458;-0.110;2023-09-19T07:16:44;5.63;;;1.20;;
74614;SDS011;63121;51.458;-0.110;2023-09-19T07:19:10;7.82;;;1.48;;
74614;SDS011;63121;51.458;-0.110;2023-09-19T07:21:36;8.15;;;1.33;;
74614;SDS011;63121;51.458;-0.110;2023-09-19T07:24:03;6.32;;;1.23;;
74614;SDS011;63121;51.458;-0.110;2023-09-19T07:26:29;9.82;;;1.20;;
74614;SDS011;63121;51.458;-0.110;2023-09-19T07:31:22;9.07;;;1.60;;
74614;SDS011;63121;51.458;-0.110;2023-09-19T07:33:48;10.55;;;1.45;;
74614;SDS011;63121;51.458;-0.110;2023-09-19T07:36:14;7.10;;;1.48;;
74614;SDS011;63121;51.458;-0.110;2023-09-19T07:38:40;6.38;;;1.35;;
74614;SDS011;63121;51.458;-0.110;2023-09-19T07:41:07;8.82;;;1.10;;
74614;SDS011;63121;51.458;-0.110;2023-09-19T07:43:34;7.72;;;1.20;;
74614;SDS011;63121;51.458;-0.110;2023-09-19T07:48:32;8.57;;;2.13;;
74614;SDS011;63121;51.458;-0.110;2023-09-19T07:51:01;8.70;;;1.45;;
74614;SDS011;63121;51.458;-0.110;2023-09-19T07:53:34;6.75;;;1.58;;
74614;SDS011;63121;51.458;-0.110;2023-09-19T07:56:04;7.82;;;1.67;;
74614;SDS011;63121;51.458;-0.110;2023-09-19T07:58:31;6.95;;;1.30;;
74614;SDS011;63121;51.458;-0.110;2023-09-19T08:03:30;5.55;;;1.25;;
74614;SDS011;63121;51.458;-0.110;2023-09-19T08:05:56;7.82;;;1.42;;
74614;SDS011;63121;51.458;-0.110;2023-09-19T08:08:22;9.63;;;1.60;;
74614;SDS011;63121;51.458;-0.110;2023-09-19T08:10:52;6.93;;;1.60;;
74614;SDS011;63121;51.458;-0.110;2023-09-19T08:13:24;12.40;;;1.70;;
74614;SDS011;63121;51.458;-0.110;2023-09-19T08:15:50;10.68;;;1.85;;
74614;SDS011;63121;51.458;-0.110;2023-09-19T08:18:20;11.52;;;1.80;;
74614;SDS011;63121;51.458;-0.110;2023-09-19T08:20:50;12.25;;;1.63;;
74614;SDS011;63121;51.458;-0.110;2023-09-19T08:23:17;13.60;;;1.50;;
74614;SDS011;63121;51.458;-0.110;2023-09-19T08:25:45;8.52;;;1.77;;
74614;SDS011;63121;51.458;-0.110;2023-09-19T08:28:11;11.90;;;2.67;;
74614;SDS011;63121;51.458;-0.110;2023-09-19T08:30:39;9.93;;;1.88;;
74614;SDS011;63121;51.458;-0.110;2023-09-19T08:33:05;11.55;;;1.95;;
74614;SDS011;63121;51.458;-0.110;2023-09-19T08:35:31;10.48;;;1.92;;
74614;SDS011;63121;51.458;-0.110;2023-09-19T08:37:57;11.07;;;1.92;;
74614;SDS011;63121;51.458;-0.110;2023-09-19T08:40:25;8.30;;;1.88;;
74614;SDS011;63121;51.458;-0.110;2023-09-19T08:42:55;12.98;;;2.38;;
74614;SDS011;63121;51.458;-0.110;2023-09-19T08:51:00;15.02;;;2.30;;
74614;SDS011;63121;51.458;-0.110;2023-09-19T08:53:34;12.75;;;2.55;;
74614;SDS011;63121;51.458;-0.110;2023-09-19T08:56:08;14.90;;;3.03;;
74614;SDS011;63121;51.458;-0.110;2023-09-19T08:58:39;10.40;;;2.03;;
74614;SDS011;63121;51.458;-0.110;2023-09-19T09:01:29;9.73;;;1.90;;
74614;SDS011;63121;51.458;-0.110;2023-09-19T09:03:57;11.23;;;2.83;;
74614;SDS011;63121;51.458;-0.110;2023-09-19T09:06:24;11.90;;;2.80;;
74614;SDS011;63121;51.458;-0.110;2023-09-19T09:08:51;10.02;;;2.17;;
74614;SDS011;63121;51.458;-0.110;2023-09-19T09:11:17;15.52;;;2.75;;
74614;SDS011;63121;51.458;-0.110;2023-09-19T09:13:44;11.55;;;2.05;;
74614;SDS011;63121;51.458;-0.110;2023-09-19T09:16:11;11.65;;;2.53;;
74614;SDS011;63121;51.458;-0.110;2023-09-19T09:18:38;12.82;;;2.80;;
74614;SDS011;63121;51.458;-0.110;2023-09-19T09:21:04;12.68;;;2.30;;
74614;SDS011;63121;51.458;-0.110;2023-09-19T09:23:29;13.60;;;2.42;;
74614;SDS011;63121;51.458;-0.110;2023-09-19T09:25:57;12.50;;;2.30;;
74614;SDS011;63121;51.458;-0.110;2023-09-19T09:28:34;15.35;;;2.53;;
74614;SDS011;63121;51.458;-0.110;2023-09-19T09:31:04;11.52;;;2.08;;
74614;SDS011;63121;51.458;-0.110;2023-09-19T09:33:37;13.07;;;2.13;;
74614;SDS011;63121;51.458;-0.110;2023-09-19T09:36:04;13.77;;;2.40;;
74614;SDS011;63121;51.458;-0.110;2023-09-19T09:38:47;15.77;;;2.40;;
74614;SDS011;63121;51.458;-0.110;2023-09-19T09:41:20;13.93;;;2.50;;
74614;SDS011;63121;51.458;-0.110;2023-09-19T09:44:12;14.77;;;2.55;;
74614;SDS011;63121;51.458;-0.110;2023-09-19T09:46:44;13.73;;;2.65;;
74614;SDS011;63121;51.458;-0.110;2023-09-19T09:49:23;12.80;;;2.55;;
74614;SDS011;63121;51.458;-0.110;2023-09-19T09:55:01;10.73;;;2.30;;
74614;SDS011;63121;51.458;-0.110;2023-09-19T09:57:33;13.10;;;3.00;;
74614;SDS011;63121;51.458;-0.110;2023-09-19T09:59:59;14.55;;;2.90;;
74614;SDS011;63121;51.458;-0.110;2023-09-19T10:02:42;12.32;;;2.25;;
74614;SDS011;63121;51.458;-0.110;2023-09-19T10:07:49;14.55;;;2.92;;
74614;SDS011;63121;51.458;-0.110;2023-09-19T10:10:30;15.65;;;3.38;;
74614;SDS011;63121;51.458;-0.110;2023-09-19T10:13:09;14.93;;;2.88;;
74614;SDS011;63121;51.458;-0.110;2023-09-19T10:15:43;14.00;;;3.65;;
74614;SDS011;63121;51.458;-0.110;2023-09-19T10:18:16;16.95;;;3.30;;
74614;SDS011;63121;51.458;-0.110;2023-09-19T10:20:46;15.13;;;2.80;;
74614;SDS011;63121;51.458;-0.110;2023-09-19T10:23:13;16.88;;;3.35;;
74614;SDS011;63121;51.458;-0.110;2023-09-19T10:25:45;13.63;;;3.08;;
74614;SDS011;63121;51.458;-0.110;2023-09-19T10:28:12;15.90;;;2.88;;
74614;SDS011;63121;51.458;-0.110;2023-09-19T10:30:42;20.92;;;3.75;;
74614;SDS011;63121;51.458;-0.110;2023-09-19T10:33:11;16.40;;;3.10;;
74614;SDS011;63121;51.458;-0.110;2023-09-19T10:35:38;14.60;;;3.20;;
74614;SDS011;63121;51.458;-0.110;2023-09-19T10:38:06;13.25;;;2.72;;
74614;SDS011;63121;51.458;-0.110;2023-09-19T10:40:34;13.25;;;3.22;;
74614;SDS011;63121;51.458;-0.110;2023-09-19T10:43:05;16.35;;;3.00;;
74614;SDS011;63121;51.458;-0.110;2023-09-19T10:45:31;13.23;;;2.67;;
74614;SDS011;63121;51.458;-0.110;2023-09-19T10:47:58;15.82;;;3.22;;
74614;SDS011;63121;51.458;-0.110;2023-09-19T10:50:25;17.08;;;2.92;;
74614;SDS011;63121;51.458;-0.110;2023-09-19T10:52:56;18.55;;;3.17;;
74614;SDS011;63121;51.458;-0.110;2023-09-19T10:55:29;12.32;;;2.60;;
74614;SDS011;63121;51.458;-0.110;2023-09-19T10:57:56;13.45;;;2.90;;
74614;SDS011;63121;51.458;-0.110;2023-09-19T11:00:49;10.65;;;2.60;;
74614;SDS011;63121;51.458;-0.110;2023-09-19T11:03:19;12.57;;;2.50;;
74614;SDS011;63121;51.458;-0.110;2023-09-19T11:06:08;15.52;;;2.67;;
74614;SDS011;63121;51.458;-0.110;2023-09-19T11:08:50;12.07;;;2.38;;
74614;SDS011;63121;51.458;-0.110;2023-09-19T11:14:14;9.50;;;2.10;;
74614;SDS011;63121;51.458;-0.110;2023-09-19T11:28:27;12.32;;;2.95;;
74614;SDS011;63121;51.458;-0.110;2023-09-19T11:30:47;11.85;;;2.60;;
74614;SDS011;63121;51.458;-0.110;2023-09-19T11:46:34;10.98;;;2.58;;
74614;SDS011;63121;51.458;-0.110;2023-09-19T11:49:18;8.18;;;2.53;;
74614;SDS011;63121;51.458;-0.110;2023-09-19T11:51:50;13.82;;;2.38;;
74614;SDS011;63121;51.458;-0.110;2023-09-19T11:54:27;11.88;;;2.30;;
74614;SDS011;63121;51.458;-0.110;2023-09-19T11:56:57;14.98;;;2.42;;
74614;SDS011;63121;51.458;-0.110;2023-09-19T11:59:24;10.05;;;2.63;;
74614;SDS011;63121;51.458;-0.110;2023-09-19T12:02:01;9.73;;;1.98;;
74614;SDS011;63121;51.458;-0.110;2023-09-19T12:07:03;10.48;;;2.00;;
74614;SDS011;63121;51.458;-0.110;2023-09-19T12:09:36;10.32;;;2.05;;
74614;SDS011;63121;51.458;-0.110;2023-09-19T12:12:04;11.75;;;2.42;;
74614;SDS011;63121;51.458;-0.110;2023-09-19T12:14:29;8.80;;;2.03;;
74614;SDS011;63121;51.458;-0.110;2023-09-19T12:16:56;8.10;;;1.80;;
74614;SDS011;63121;51.458;-0.110;2023-09-19T12:19:25;10.70;;;2.47;;
74614;SDS011;63121;51.458;-0.110;2023-09-19T12:21:54;11.15;;;2.17;;
74614;SDS011;63121;51.458;-0.110;2023-09-19T12:24:23;15.57;;;2.20;;
74614;SDS011;63121;51.458;-0.110;2023-09-19T12:26:51;12.82;;;1.95;;
74614;SDS011;63121;51.458;-0.110;2023-09-19T12:29:21;10.15;;;2.08;;
74614;SDS011;63121;51.458;-0.110;2023-09-19T12:31:56;10.13;;;2.03;;
74614;SDS011;63121;51.458;-0.110;2023-09-19T12:34:23;13.18;;;2.33;;
74614;SDS011;63121;51.458;-0.110;2023-09-19T12:37:03;8.90;;;1.95;;
74614;SDS011;63121;51.458;-0.110;2023-09-19T12:39:40;12.15;;;2.53;;
74614;SDS011;63121;51.458;-0.110;2023-09-19T12:42:10;10.23;;;2.38;;
74614;SDS011;63121;51.458;-0.110;2023-09-19T12:44:40;9.98;;;2.45;;
74614;SDS011;63121;51.458;-0.110;2023-09-19T12:47:17;10.98;;;2.67;;
74614;SDS011;63121;51.458;-0.110;2023-09-19T12:52:50;8.07;;;2.20;;
74614;SDS011;63121;51.458;-0.110;2023-09-19T12:55:22;7.57;;;1.83;;
74614;SDS011;63121;51.458;-0.110;2023-09-19T13:00:43;7.20;;;1.83;;
74614;SDS011;63121;51.458;-0.110;2023-09-19T13:03:33;10.27;;;2.08;;
74614;SDS011;63121;51.458;-0.110;2023-09-19T13:06:00;7.95;;;1.80;;
74614;SDS011;63121;51.458;-0.110;2023-09-19T13:08:30;12.77;;;2.20;;
74614;SDS011;63121;51.458;-0.110;2023-09-19T13:11:03;10.48;;;2.35;;
74614;SDS011;63121;51.458;-0.110;2023-09-19T13:13:35;11.30;;;2.88;;
74614;SDS011;63121;51.458;-0.110;2023-09-19T13:16:02;14.60;;;2.67;;
74614;SDS011;63121;51.458;-0.110;2023-09-19T13:18:29;13.00;;;2.70;;
74614;SDS011;63121;51.458;-0.110;2023-09-19T13:21:13;11.65;;;3.17;;
74614;SDS011;63121;51.458;-0.110;2023-09-19T13:23:51;10.45;;;2.22;;
74614;SDS011;63121;51.458;-0.110;2023-09-19T13:26:19;12.30;;;2.72;;
74614;SDS011;63121;51.458;-0.110;2023-09-19T13:28:45;9.35;;;2.20;;
74614;SDS011;63121;51.458;-0.110;2023-09-19T13:31:14;10.25;;;2.50;;
74614;SDS011;63121;51.458;-0.110;2023-09-19T13:33:43;11.50;;;2.63;;
74614;SDS011;63121;51.458;-0.110;2023-09-19T13:36:12;14.93;;;2.60;;
74614;SDS011;63121;51.458;-0.110;2023-09-19T13:38:41;8.15;;;2.03;;
74614;SDS011;63121;51.458;-0.110;2023-09-19T13:41:08;8.45;;;2.30;;
74614;SDS011;63121;51.458;-0.110;2023-09-19T13:43:37;10.43;;;2.03;;
74614;SDS011;63121;51.458;-0.110;2023-09-19T13:46:03;10.98;;;2.15;;
74614;SDS011;63121;51.458;-0.110;2023-09-19T13:48:30;7.65;;;1.60;;
74614;SDS011;63121;51.458;-0.110;2023-09-19T13:50:55;10.02;;;2.17;;
74614;SDS011;63121;51.458;-0.110;2023-09-19T13:53:21;10.18;;;2.30;;
74614;SDS011;63121;51.458;-0.110;2023-09-19T13:55:47;9.98;;;2.33;;
74614;SDS011;63121;51.458;-0.110;2023-09-19T13:58:16;10.57;;;1.98;;
74614;SDS011;63121;51.458;-0.110;2023-09-19T14:00:41;11.55;;;2.13;;
74614;SDS011;63121;51.458;-0.110;2023-09-19T14:03:06;6.13;;;2.00;;
74614;SDS011;63121;51.458;-0.110;2023-09-19T14:05:32;9.90;;;2.17;;
74614;SDS011;63121;51.458;-0.110;2023-09-19T14:07:57;11.40;;;2.20;;
74614;SDS011;63121;51.458;-0.110;2023-09-19T14:10:24;10.98;;;2.40;;
74614;SDS011;63121;51.458;-0.110;2023-09-19T14:12:52;8.93;;;1.80;;
74614;SDS011;63121;51.458;-0.110;2023-09-19T14:15:17;7.90;;;2.00;;
74614;SDS011;63121;51.458;-0.110;2023-09-19T14:17:43;9.77;;;1.90;;
74614;SDS011;63121;51.458;-0.110;2023-09-19T14:20:11;8.50;;;2.08;;
74614;SDS011;63121;51.458;-0.110;2023-09-19T14:22:37;8.40;;;1.90;;
74614;SDS011;63121;51.458;-0.110;2023-09-19T14:25:03;6.78;;;1.58;;
74614;SDS011;63121;51.458;-0.110;2023-09-19T14:27:29;6.40;;;1.75;;
74614;SDS011;63121;51.458;-0.110;2023-09-19T14:29:55;6.80;;;1.77;;
74614;SDS011;63121;51.458;-0.110;2023-09-19T14:32:22;7.00;;;1.60;;
74614;SDS011;63121;51.458;-0.110;2023-09-19T14:34:47;9.13;;;1.50;;
74614;SDS011;63121;51.458;-0.110;2023-09-19T14:37:12;9.02;;;1.70;;
74614;SDS011;63121;51.458;-0.110;2023-09-19T14:39:39;8.82;;;1.73;;
74614;SDS011;63121;51.458;-0.110;2023-09-19T14:42:05;7.38;;;1.90;;
74614;SDS011;63121;51.458;-0.110;2023-09-19T14:44:31;6.43;;;1.55;;
74614;SDS011;63121;51.458;-0.110;2023-09-19T14:46:56;6.20;;;1.70;;
74614;SDS011;63121;51.458;-0.110;2023-09-19T14:49:22;5.90;;;1.40;;
74614;SDS011;63121;51.458;-0.110;2023-09-19T14:51:47;6.40;;;1.70;;
74614;SDS011;63121;51.458;-0.110;2023-09-19T14:54:12;5.05;;;1.30;;
74614;SDS011;63121;51.458;-0.110;2023-09-19T14:56:38;5.03;;;1.42;;
74614;SDS011;63121;51.458;-0.110;2023-09-19T14:59:04;8.73;;;1.85;;
74614;SDS011;63121;51.458;-0.110;2023-09-19T15:01:29;6.90;;;1.60;;
74614;SDS011;63121;51.458;-0.110;2023-09-19T15:03:55;3.55;;;1.50;;
74614;SDS011;63121;51.458;-0.110;2023-09-19T15:06:20;6.65;;;1.75;;
74614;SDS011;63121;51.458;-0.110;2023-09-19T15:08:46;10.38;;;1.73;;
74614;SDS011;63121;51.458;-0.110;2023-09-19T15:11:19;8.40;;;2.05;;
74614;SDS011;63121;51.458;-0.110;2023-09-19T15:13:46;8.40;;;1.67;;
74614;SDS011;63121;51.458;-0.110;2023-09-19T15:16:12;5.75;;;1.67;;
74614;SDS011;63121;51.458;-0.110;2023-09-19T15:18:39;8.48;;;1.90;;
74614;SDS011;63121;51.458;-0.110;2023-09-19T15:21:07;7.78;;;1.70;;
74614;SDS011;63121;51.458;-0.110;2023-09-19T15:23:34;8.50;;;1.73;;
74614;SDS011;63121;51.458;-0.110;2023-09-19T15:26:02;5.50;;;1.42;;
74614;SDS011;63121;51.458;-0.110;2023-09-19T15:28:29;8.32;;;1.80;;
74614;SDS011;63121;51.458;-0.110;2023-09-19T15:31:02;6.63;;;1.38;;
74614;SDS011;63121;51.458;-0.110;2023-09-19T15:33:29;9.50;;;2.00;;
74614;SDS011;63121;51.458;-0.110;2023-09-19T15:36:09;7.90;;;1.50;;
74614;SDS011;63121;51.458;-0.110;2023-09-19T15:41:22;8.50;;;1.73;;
74614;SDS011;63121;51.458;-0.110;2023-09-19T15:43:48;7.30;;;1.63;;
74614;SDS011;63121;51.458;-0.110;2023-09-19T15:46:14;7.13;;;1.60;;
74614;SDS011;63121;51.458;-0.110;2023-09-19T15:48:40;6.93;;;2.33;;
74614;SDS011;63121;51.458;-0.110;2023-09-19T15:51:06;7.43;;;1.80;;
74614;SDS011;63121;51.458;-0.110;2023-09-19T15:53:41;8.50;;;1.90;;
74614;SDS011;63121;51.458;-0.110;2023-09-19T15:58:35;5.78;;;1.27;;
74614;SDS011;63121;51.458;-0.110;2023-09-19T16:01:07;6.07;;;1.40;;
74614;SDS011;63121;51.458;-0.110;2023-09-19T16:03:37;6.30;;;1.30;;
74614;SDS011;63121;51.458;-0.110;2023-09-19T16:06:13;6.45;;;1.60;;
74614;SDS011;63121;51.458;-0.110;2023-09-19T16:08:40;8.70;;;1.50;;
74614;SDS011;63121;51.458;-0.110;2023-09-19T16:11:13;6.75;;;1.60;;
74614;SDS011;63121;51.458;-0.110;2023-09-19T16:13:40;7.43;;;1.73;;
74614;SDS011;63121;51.458;-0.110;2023-09-19T16:16:07;6.35;;;1.40;;
74614;SDS011;63121;51.458;-0.110;2023-09-19T16:18:37;7.72;;;1.88;;